createdAt,value
2019-06-15T00:03:09.462Z,22.5
2019-06-15T00:13:14.361Z,22.6
2019-06-15T00:18:16.783Z,22.6
2019-06-15T00:23:19.225Z,22.6
2019-06-15T00:28:21.660Z,22.7
2019-06-15T00:33:24.162Z,22.7
2019-06-15T00:38:26.710Z,22.7
2019-06-15T00:48:31.469Z,22.7
2019-06-15T00:53:33.869Z,22.7
2019-06-15T00:58:36.324Z,22.7
2019-06-15T01:03:38.785Z,22.6
2019-06-15T01:08:41.272Z,22.6
2019-06-15T01:13:43.678Z,22.6
2019-06-15T01:18:46.086Z,22.6
2019-06-15T01:23:48.528Z,22.6
2019-06-15T01:28:51.030Z,22.6
2019-06-15T01:33:53.423Z,22.6
2019-06-15T01:38:55.855Z,22.5
2019-06-15T01:43:58.283Z,22.5
2019-06-15T01:49:00.741Z,22.4
2019-06-15T01:54:03.381Z,22.4
2019-06-15T01:59:05.640Z,22.4
2019-06-15T02:04:08.051Z,22.4
2019-06-15T02:09:10.561Z,22.4
2019-06-15T02:14:12.960Z,22.4
2019-06-15T02:19:15.370Z,22.3
2019-06-15T02:24:17.831Z,22.3
2019-06-15T02:29:20.291Z,22.3
2019-06-15T02:34:22.717Z,22.3
2019-06-15T02:39:25.152Z,22.2
2019-06-15T02:44:27.612Z,22.2
2019-06-15T02:49:30.016Z,22.1
2019-06-15T02:54:32.578Z,22.1
2019-06-15T02:59:34.901Z,22
2019-06-15T03:04:37.447Z,22
2019-06-15T03:09:39.811Z,21.9
2019-06-15T03:14:42.334Z,21.9
2019-06-15T03:19:44.730Z,21.9
2019-06-15T03:24:47.157Z,21.8
2019-06-15T03:29:49.577Z,21.8
2019-06-15T03:34:52.005Z,21.9
2019-06-15T03:39:54.508Z,21.8
2019-06-15T03:44:56.907Z,21.8
2019-06-15T03:55:01.856Z,21.7
2019-06-15T04:00:04.222Z,21.8
2019-06-15T04:05:06.681Z,21.8
2019-06-15T04:10:09.103Z,21.8
2019-06-15T04:15:11.530Z,21.8
2019-06-15T04:20:14.110Z,21.8
2019-06-15T04:25:16.434Z,21.9
2019-06-15T04:30:18.878Z,22
2019-06-15T04:35:21.284Z,22
2019-06-15T04:45:26.205Z,22.3
2019-06-15T04:50:28.663Z,22.4
2019-06-15T04:55:31.195Z,22.4
2019-06-15T05:00:34.208Z,22.4
2019-06-15T05:05:36.017Z,22.3
2019-06-15T05:10:38.387Z,22.2
2019-06-15T05:15:40.835Z,22.3
2019-06-15T05:20:43.274Z,22.3
2019-06-15T05:25:45.710Z,22.4
2019-06-15T05:30:48.234Z,22.4
2019-06-15T05:35:50.598Z,22.4
2019-06-15T05:40:53.048Z,22.5
2019-06-15T05:45:55.511Z,22.6
2019-06-15T05:50:58.646Z,22.7
2019-06-15T05:56:00.424Z,22.8
2019-06-15T06:01:02.922Z,22.8
2019-06-15T06:06:05.270Z,22.8
2019-06-15T06:11:07.934Z,22.9
2019-06-15T06:16:10.143Z,23
2019-06-15T06:21:12.589Z,23.1
2019-06-15T06:26:15.023Z,23.2
2019-06-15T06:31:17.464Z,23.3
2019-06-15T06:36:19.949Z,23.3
2019-06-15T06:41:22.456Z,23.4
2019-06-15T06:46:24.791Z,23.5
2019-06-15T06:51:27.365Z,23.5
2019-06-15T06:56:29.672Z,23.4
2019-06-15T07:01:32.247Z,23.3
2019-06-15T07:06:34.545Z,23.2
2019-06-15T07:11:37.191Z,23.1
2019-06-15T07:16:39.444Z,23.1
2019-06-15T07:21:41.947Z,23.3
2019-06-15T07:26:44.335Z,23.4
2019-06-15T07:31:46.811Z,23.6
2019-06-15T07:36:49.397Z,23.8
2019-06-15T07:46:54.230Z,24.2
2019-06-15T07:51:56.746Z,24.3
2019-06-15T07:56:58.971Z,24.5
2019-06-15T08:02:03.730Z,24.6
2019-06-15T08:07:03.859Z,24.7
2019-06-15T08:12:06.310Z,24.7
2019-06-15T08:17:08.798Z,24.9
2019-06-15T08:22:11.237Z,25
2019-06-15T08:27:13.624Z,25.2
2019-06-15T08:32:16.076Z,25.4
2019-06-15T08:37:18.576Z,25.4
2019-06-15T08:42:20.990Z,25.4
2019-06-15T08:47:23.414Z,25.3
2019-06-15T08:52:25.835Z,25.3
2019-06-15T09:02:30.707Z,25.3
2019-06-15T09:07:33.177Z,25.3
2019-06-15T09:12:35.627Z,25.4
2019-06-15T09:17:38.043Z,25.5
2019-06-15T09:22:40.492Z,25.7
2019-06-15T09:27:42.999Z,26
2019-06-15T09:37:47.798Z,26.2
2019-06-15T09:42:50.224Z,26.3
2019-06-15T09:47:52.692Z,26.3
2019-06-15T09:52:55.186Z,26.4
2019-06-15T09:57:57.733Z,26.4
2019-06-15T10:03:00.078Z,26.5
2019-06-15T10:08:02.473Z,26.6
2019-06-15T10:13:05.019Z,26.8
2019-06-15T10:18:07.475Z,27
2019-06-15T10:23:09.847Z,27.2
2019-06-15T10:28:12.279Z,27.5
2019-06-15T10:33:14.747Z,27.8
2019-06-15T10:38:17.133Z,28.2
2019-06-15T10:43:19.550Z,28.4
2019-06-15T10:48:21.994Z,28.5
2019-06-15T10:53:24.446Z,28.6
2019-06-15T10:58:26.957Z,28.7
2019-06-15T11:03:29.301Z,29
2019-06-15T11:08:31.819Z,28.7
2019-06-15T11:13:34.215Z,28.8
2019-06-15T11:18:36.683Z,29.2
2019-06-15T11:23:39.090Z,29.6
2019-06-15T11:28:41.581Z,29.7
2019-06-15T11:33:43.961Z,29.9
2019-06-15T11:38:46.419Z,30.1
2019-06-15T11:43:48.975Z,29.6
2019-06-15T11:48:51.362Z,29
2019-06-15T11:53:53.751Z,28.6
2019-06-15T11:58:56.177Z,28.5
2019-06-15T12:03:58.657Z,28.5
2019-06-15T12:09:01.083Z,28.4
2019-06-15T12:14:03.538Z,28.3
2019-06-15T12:19:06.007Z,28.6
2019-06-15T12:24:08.391Z,29.4
2019-06-15T12:29:10.883Z,30.3
2019-06-15T12:34:13.263Z,30.6
2019-06-15T12:39:16.055Z,30.6
2019-06-15T12:44:18.149Z,30.9
2019-06-15T12:49:20.644Z,31
2019-06-15T12:54:23.112Z,30.5
2019-06-15T12:59:25.501Z,30.3
2019-06-15T13:04:29.763Z,30.5
2019-06-15T13:09:30.392Z,30.7
2019-06-15T13:14:32.837Z,30
2019-06-15T13:19:35.275Z,29.4
2019-06-15T13:24:37.982Z,29
2019-06-15T13:29:40.240Z,28.5
2019-06-15T13:34:42.582Z,28.3
2019-06-15T13:39:45.023Z,28.3
2019-06-15T13:44:47.474Z,28.4
2019-06-15T13:49:49.913Z,29
2019-06-15T13:54:52.507Z,29.2
2019-06-15T13:59:54.799Z,29.2
2019-06-15T14:04:57.328Z,29.4
2019-06-15T14:09:59.722Z,30.4
2019-06-15T14:15:02.137Z,31.5
2019-06-15T14:20:04.590Z,32.1
2019-06-15T14:25:07.031Z,32.7
2019-06-15T14:30:09.570Z,33.1
2019-06-15T14:35:11.918Z,32.9
2019-06-15T14:40:14.362Z,32.9
2019-06-15T14:45:16.787Z,32.7
2019-06-15T14:50:19.228Z,32.7
2019-06-15T14:55:21.895Z,33.4
2019-06-15T15:00:24.194Z,33.7
2019-06-15T15:05:27.310Z,32.8
2019-06-15T15:10:29.194Z,31.9
2019-06-15T15:15:31.441Z,31.1
2019-06-15T15:20:33.906Z,31.2
2019-06-15T15:25:36.989Z,31.3
2019-06-15T15:30:38.809Z,31.1
2019-06-15T15:35:41.208Z,32.1
2019-06-15T15:40:43.665Z,33.8
2019-06-15T15:45:46.186Z,35
2019-06-15T15:50:48.528Z,36.1
2019-06-15T15:55:51.035Z,36.2
2019-06-15T16:00:53.404Z,36.7
2019-06-15T16:05:56.155Z,37.4
2019-06-15T16:10:58.405Z,36.9
2019-06-15T16:16:00.749Z,36.5
2019-06-15T16:21:03.166Z,35.4
2019-06-15T16:26:05.633Z,34.4
2019-06-15T16:31:13.074Z,33.9
2019-06-15T16:36:10.535Z,32.6
2019-06-15T16:41:12.942Z,31.2
2019-06-15T16:46:17.156Z,30.2
2019-06-15T16:51:17.960Z,29.5
2019-06-15T16:56:20.288Z,28.8
2019-06-15T17:01:22.712Z,28.4
2019-06-15T17:06:26.830Z,28
2019-06-15T17:11:27.626Z,27.7
2019-06-15T17:16:30.144Z,27.5
2019-06-15T17:21:32.505Z,27.2
2019-06-15T17:26:36.460Z,26.8
2019-06-15T17:31:37.640Z,26.5
2019-06-15T17:36:39.808Z,26.2
2019-06-15T17:41:42.273Z,26
2019-06-15T17:46:46.350Z,25.9
2019-06-15T17:51:47.138Z,25.8
2019-06-15T17:56:49.582Z,25.7
2019-06-15T18:01:52.013Z,25.7
2019-06-15T18:06:56.737Z,25.7
2019-06-15T18:11:57.178Z,25.6
2019-06-15T18:16:59.426Z,25.5
2019-06-15T18:22:01.805Z,25.4
2019-06-15T18:27:06.966Z,25.2
2019-06-15T18:32:06.670Z,25.2
2019-06-15T18:37:09.160Z,25.1
2019-06-15T18:42:11.539Z,25
2019-06-15T18:47:16.294Z,24.9
2019-06-15T18:52:17.044Z,24.7
2019-06-15T18:57:18.865Z,24.5
2019-06-15T19:02:21.355Z,24.4
2019-06-15T19:07:23.780Z,24.1
2019-06-15T19:12:26.464Z,24
2019-06-15T19:17:28.632Z,23.9
2019-06-15T19:22:31.150Z,23.7
2019-06-15T19:27:33.509Z,23.6
2019-06-15T19:32:36.776Z,23.5
2019-06-15T19:37:38.603Z,23.4
2019-06-15T19:42:40.833Z,23.3
2019-06-15T19:47:43.322Z,23.2
2019-06-15T19:52:46.184Z,23.1
2019-06-15T19:57:48.237Z,23.1
2019-06-15T20:02:50.598Z,23.1
2019-06-15T20:07:53.064Z,23
2019-06-15T20:12:56.197Z,23
2019-06-15T20:17:57.926Z,22.9
2019-06-15T20:23:00.373Z,22.8
2019-06-15T20:28:02.854Z,22.7
2019-06-15T20:33:07.170Z,22.6
2019-06-15T20:38:07.996Z,22.5
2019-06-15T20:43:10.159Z,22.4
2019-06-15T20:48:12.607Z,22.4
2019-06-15T20:53:16.979Z,22.3
2019-06-15T20:58:17.555Z,22.2
2019-06-15T21:03:19.925Z,22.1
2019-06-15T21:08:22.558Z,22.1
2019-06-15T21:13:26.348Z,22
2019-06-15T21:18:27.233Z,21.9
2019-06-15T21:23:29.674Z,21.7
2019-06-15T21:28:32.264Z,21.6
2019-06-15T21:33:36.029Z,21.5
2019-06-15T21:38:37.017Z,21.5
2019-06-15T21:43:39.475Z,21.4
2019-06-15T21:48:41.915Z,21.3
2019-06-15T21:53:46.658Z,21.3
2019-06-15T21:58:46.764Z,21.3
2019-06-15T22:03:49.208Z,21.3
2019-06-15T22:08:51.654Z,21.3
2019-06-15T22:13:54.091Z,21.3
2019-06-15T22:18:56.516Z,21.2
2019-06-15T22:23:58.987Z,21.2
2019-06-15T22:29:01.432Z,21.2
2019-06-15T22:34:06.410Z,21.1
2019-06-15T22:39:06.589Z,21.1
2019-06-15T22:44:08.747Z,21
2019-06-15T22:49:11.169Z,20.9
2019-06-15T22:54:13.614Z,20.8
2019-06-15T22:59:16.856Z,20.8
2019-06-15T23:04:18.612Z,20.7
2019-06-15T23:09:21.049Z,20.6
2019-06-15T23:14:23.395Z,20.5
2019-06-15T23:19:26.252Z,20.4
2019-06-15T23:24:28.289Z,20.3
2019-06-15T23:29:31.169Z,20.2
2019-06-15T23:34:33.237Z,20.2
2019-06-15T23:39:36.102Z,20.2
2019-06-15T23:44:38.020Z,20.1
2019-06-15T23:49:40.487Z,20.1
2019-06-15T23:54:42.951Z,20
2019-06-15T23:59:46.512Z,20
